Hamilton, Arkansas
Current Conditions -  °F | °C
As of 11:35 PM on Saturday 25 Oct 2014 (Local Time) from KSGT Reporting Station
Clear Clear  
Wind Chill: 64°   Ceiling: Unl
Heat Index: 64°   Visibility: 5mi
Dew Point: 61°   Wind: 8mph
Humidity: 88%   Direction: 210°SSW
Pressure: 30.04"   Gusts: NA
Location:  34.8142°N, 91.7503°W
Report Text: KSGT 260435Z AUTO 21007KT 5SM CLR 18/16 A3004 RMK AO1
Loading
Personal Weather Stations






























Interactive Weather Map
Tropical Storm Tracking
New forecast layout! Learn more

10-Day Weather Forecast

Advertisements
Track Severe Weather on mobile